Time;durP1;ratioP1;P1;durP2;ratioP2;P2;SDS_P1;SDS_P2;PMS_P1;PMS_P2;Temp;Humidity;BMP_temperature;BMP_pressure;BME280_temperature;BME280_humidity;BME280_pressure;Samples;Min_cycle;Max_cycle;Signal;HPM_P1;HPM_P2
2022/10/09 00:00:48;;;;;;;;;13.00;9.33;;;;;12.72;56.43;101784.19;5015692;28;45649;-54
2022/10/09 00:03:16;;;;;;;;;9.75;9.75;;;;;12.64;56.75;101783.69;5036550;28;45398;-54
2022/10/09 00:05:42;;;;;;;;;13.00;8.75;;;;;12.58;56.77;101774.16;5036087;28;45768;-58
2022/10/09 00:08:08;;;;;;;;;12.33;11.33;;;;;12.56;57.29;101777.81;5018773;28;45450;-60
2022/10/09 00:10:34;;;;;;;;;15.00;13.00;;;;;12.53;57.11;101775.31;5022661;28;45528;-64
2022/10/09 00:12:59;;;;;;;;;13.00;13.00;;;;;12.49;57.45;101773.69;5015468;28;46101;-62
2022/10/09 00:15:24;;;;;;;;;19.75;18.50;;;;;12.45;57.45;101780.09;5019602;28;45377;-59
2022/10/09 00:17:50;;;;;;;;;18.50;16.00;;;;;12.40;57.58;101769.66;5032711;28;45489;-54
2022/10/09 00:20:15;;;;;;;;;17.75;15.25;;;;;12.31;57.97;101765.59;5036161;28;45671;-55
2022/10/09 00:22:42;;;;;;;;;22.25;15.00;;;;;12.26;58.00;101767.59;5031637;28;45493;-57
2022/10/09 00:25:08;;;;;;;;;23.75;18.50;;;;;12.27;57.67;101774.66;5019405;28;45398;-59
2022/10/09 00:27:34;;;;;;;;;20.00;18.50;;;;;12.28;58.03;101765.72;5018649;28;45355;-61
2022/10/09 00:30:00;;;;;;;;;25.50;20.75;;;;;12.29;57.87;101764.78;5047906;28;45528;-55
2022/10/09 00:32:25;;;;;;;;;21.75;18.50;;;;;12.28;57.75;101767.53;5017133;28;45346;-58
2022/10/09 00:34:51;;;;;;;;;21.00;20.00;;;;;12.30;57.72;101768.34;5030402;28;45245;-54
2022/10/09 00:37:16;;;;;;;;;19.25;18.25;;;;;12.28;57.89;101765.72;5018602;28;45323;-53
2022/10/09 00:39:42;;;;;;;;;22.50;19.75;;;;;12.24;57.41;101758.81;5034149;28;45312;-58
2022/10/09 00:42:10;;;;;;;;;27.50;23.75;;;;;12.22;58.02;101763.31;5039049;28;45220;-58
2022/10/09 00:44:59;;;;;;;;;24.50;19.50;;;;;12.21;57.72;101758.94;5028377;28;46780;-60
2022/10/09 00:47:35;;;;;;;;;25.75;24.75;;;;;12.21;57.98;101761.59;5019189;28;45473;-62
2022/10/09 00:50:11;;;;;;;;;27.50;19.00;;;;;12.16;58.42;101760.94;5034790;28;45347;-63
2022/10/09 00:52:37;;;;;;;;;21.25;18.75;;;;;12.08;58.81;101758.59;5021730;28;46420;-61
2022/10/09 00:55:03;;;;;;;;;29.75;26.25;;;;;12.12;58.26;101754.03;5019061;28;45273;-57
2022/10/09 00:57:31;;;;;;;;;29.75;28.50;;;;;12.10;58.62;101761.19;5024079;28;45515;-56
2022/10/09 01:00:00;;;;;;;;;33.00;32.00;;;;;12.07;58.62;101756.88;5027086;28;45617;-58
2022/10/09 01:02:26;;;;;;;;;42.25;32.50;;;;;12.02;58.43;101753.53;5031745;28;46314;-56
2022/10/09 01:04:51;;;;;;;;;40.00;30.50;;;;;12.04;58.46;101756.16;5038803;28;45336;-59
2022/10/09 01:07:34;;;;;;;;;34.75;29.50;;;;;11.99;58.98;101755.50;5036489;28;45779;-55
2022/10/09 01:10:26;;;;;;;;;28.25;26.25;;;;;11.92;59.69;101754.00;5037621;28;45469;-56
2022/10/09 01:13:30;;;;;;;;;28.75;27.25;;;;;11.82;59.56;101746.41;5038454;28;46151;-58
2022/10/09 01:16:00;;;;;;;;;22.50;17.25;;;;;11.75;59.68;101731.59;5007136;28;45539;-58
2022/10/09 01:18:40;;;;;;;;;24.75;21.25;;;;;11.75;59.53;101741.38;5037453;28;45295;-59
2022/10/09 01:21:11;;;;;;;;;27.75;24.00;;;;;11.80;59.35;101734.94;5029050;28;46179;-61
2022/10/09 01:24:00;;;;;;;;;30.00;24.00;;;;;11.80;59.22;101728.75;5017376;28;46091;-59
2022/10/09 01:26:50;;;;;;;;;30.25;24.75;;;;;11.75;59.60;101722.72;5025364;28;45489;-62
2022/10/09 01:29:19;;;;;;;;;24.25;21.75;;;;;11.75;59.45;101715.59;5028598;28;45465;-64
2022/10/09 01:31:47;;;;;;;;;28.00;21.00;;;;;11.77;59.69;101712.84;5036647;28;45196;-61
2022/10/09 01:34:15;;;;;;;;;18.75;17.75;;;;;11.69;59.82;101707.84;5032035;28;45379;-55
2022/10/09 01:36:43;;;;;;;;;29.50;25.00;;;;;11.69;60.18;101713.16;5038548;28;45318;-54
2022/10/09 01:39:15;;;;;;;;;17.50;17.50;;;;;11.67;60.11;101703.50;5037426;28;45338;-55
2022/10/09 01:41:42;;;;;;;;;22.00;19.00;;;;;11.68;60.20;101706.13;5037640;28;45546;-55
2022/10/09 01:44:19;;;;;;;;;17.25;15.50;;;;;11.63;59.93;101692.13;5031854;28;46180;-55
2022/10/09 01:46:45;;;;;;;;;20.00;18.00;;;;;11.64;59.77;101682.34;5033527;28;45508;-55
2022/10/09 01:49:55;;;;;;;;;20.00;18.00;;;;;11.65;59.83;101692.94;5034258;28;45371;-55
2022/10/09 01:52:31;;;;;;;;;15.50;14.00;;;;;11.62;59.85;101679.75;5011210;28;45399;-63
2022/10/09 01:55:00;;;;;;;;;17.25;14.75;;;;;11.62;59.94;101679.75;5033710;28;46540;-59
2022/10/09 01:58:02;;;;;;;;;23.25;18.75;;;;;11.60;60.09;101665.63;5026962;28;45374;-57
2022/10/09 02:00:32;;;;;;;;;21.75;17.75;;;;;11.60;60.44;101676.28;5018523;28;45267;-58
2022/10/09 02:03:00;;;;;;;;;16.50;14.75;;;;;11.57;60.98;101671.06;5002481;28;45406;-62
2022/10/09 02:05:29;;;;;;;;;18.25;17.50;;;;;11.57;60.61;101671.06;5035482;28;46282;-58
2022/10/09 02:07:56;;;;;;;;;16.00;14.25;;;;;11.56;60.59;101668.47;5032099;28;45498;-57
2022/10/09 02:10:24;;;;;;;;;15.75;14.25;;;;;11.53;60.50;101666.81;5036381;28;45456;-60
2022/10/09 02:12:56;;;;;;;;;13.00;13.00;;;;;11.49;60.95;101662.56;5031894;28;45599;-61
2022/10/09 02:15:26;;;;;;;;;16.75;15.00;;;;;11.42;61.01;101650.41;5032755;28;45335;-61
2022/10/09 02:17:55;;;;;;;;;20.75;19.75;;;;;11.39;60.76;101653.22;5018153;28;45319;-60
2022/10/09 02:20:29;;;;;;;;;13.50;11.25;;;;;11.31;61.60;101645.53;5032892;28;45458;-58
2022/10/09 02:22:57;;;;;;;;;18.25;18.25;;;;;11.35;61.25;101654.28;5036176;28;45347;-59
2022/10/09 02:25:23;;;;;;;;;15.50;14.00;;;;;11.35;60.99;101648.97;5024002;28;45341;-59
2022/10/09 02:27:49;;;;;;;;;19.75;14.25;;;;;11.34;61.33;101648.09;5023220;28;45434;-55
2022/10/09 02:30:15;;;;;;;;;14.25;14.00;;;;;11.28;61.21;101635.03;5037534;28;45740;-57
2022/10/09 02:32:40;;;;;;;;;13.00;11.50;;;;;11.27;61.96;101635.97;5030641;28;45555;-58
2022/10/09 02:35:07;;;;;;;;;17.50;16.00;;;;;11.18;62.24;101639.84;5037299;28;46298;-59
2022/10/09 02:37:32;;;;;;;;;20.00;16.75;;;;;11.09;62.34;101642.94;5030852;28;45228;-57
2022/10/09 02:39:58;;;;;;;;;16.25;14.00;;;;;11.01;62.98;101634.38;5036994;28;45268;-59
2022/10/09 02:42:24;;;;;;;;;12.75;11.00;;;;;10.99;62.31;101627.41;5037383;28;45610;-56
2022/10/09 02:44:51;;;;;;;;;17.75;14.50;;;;;10.97;63.06;101627.47;5036246;28;45450;-62
2022/10/09 02:47:16;;;;;;;;;22.00;14.50;;;;;10.99;62.61;101622.94;5034489;28;45414;-59
2022/10/09 02:49:42;;;;;;;;;23.75;19.50;;;;;10.97;62.62;101616.81;5018535;27;45426;-59
2022/10/09 02:52:07;;;;;;;;;18.00;16.50;;;;;10.92;62.08;101603.69;5013268;28;45565;-60
2022/10/09 02:54:33;;;;;;;;;13.75;11.75;;;;;11.02;62.62;101616.63;5030457;28;45412;-56
2022/10/09 02:56:58;;;;;;;;;16.75;11.75;;;;;10.98;62.32;101623.00;5029639;28;45422;-62
2022/10/09 02:59:23;;;;;;;;;17.00;11.00;;;;;10.90;62.74;101610.00;5027721;28;45331;-62
2022/10/09 03:01:49;;;;;;;;;16.75;12.75;;;;;10.79;62.91;101601.59;5037588;28;45374;-62
2022/10/09 03:04:14;;;;;;;;;13.75;13.00;;;;;10.82;63.13;101617.44;5026619;28;46316;-55
2022/10/09 03:06:39;;;;;;;;;13.00;13.00;;;;;10.79;63.28;101612.22;5017157;28;45295;-58
2022/10/09 03:09:05;;;;;;;;;14.50;12.00;;;;;10.73;63.29;101612.50;5026026;28;45508;-57
2022/10/09 03:11:30;;;;;;;;;16.75;11.75;;;;;10.66;64.00;101609.19;5036897;28;45341;-57
2022/10/09 03:13:56;;;;;;;;;14.50;14.50;;;;;10.57;63.73;101597.16;5030115;28;46004;-59
2022/10/09 03:16:24;;;;;;;;;11.50;8.00;;;;;10.55;63.73;101599.00;5033323;28;45512;-53
2022/10/09 03:18:50;;;;;;;;;12.75;12.75;;;;;10.60;63.87;101596.16;5046776;28;45473;-56
2022/10/09 03:21:22;;;;;;;;;12.00;12.00;;;;;10.60;63.83;101599.69;5016585;28;45537;-57
2022/10/09 03:23:47;;;;;;;;;12.50;11.00;;;;;10.60;63.53;101594.34;5019843;28;45998;-56
2022/10/09 03:26:17;;;;;;;;;11.50;11.25;;;;;10.57;64.20;101586.50;5021469;28;45461;-62
2022/10/09 03:28:46;;;;;;;;;13.75;13.75;;;;;10.59;64.44;101600.63;5033947;28;45482;-56
2022/10/09 03:31:13;;;;;;;;;11.75;10.75;;;;;10.57;64.21;101588.31;5037726;28;45374;-62
2022/10/09 03:33:39;;;;;;;;;13.25;10.75;;;;;10.54;64.77;101594.59;5035463;28;45557;-59
2022/10/09 03:36:06;;;;;;;;;11.50;10.75;;;;;10.49;64.52;101583.28;5036560;28;45436;-56
2022/10/09 03:38:32;;;;;;;;;2.75;1.75;;;;;10.47;64.37;101585.13;5025114;28;45585;-57
2022/10/09 03:40:58;;;;;;;;;11.25;9.75;;;;;10.44;65.09;101585.28;5033885;28;45457;-60
2022/10/09 03:43:24;;;;;;;;;12.50;11.75;;;;;10.40;65.13;101578.31;5034436;28;45395;-54
2022/10/09 03:45:49;;;;;;;;;12.00;11.00;;;;;10.38;64.45;101590.81;5035468;28;45397;-54
2022/10/09 03:48:15;;;;;;;;;16.00;13.00;;;;;10.31;65.10;101576.03;5029639;28;45445;-57
2022/10/09 03:50:41;;;;;;;;;16.00;12.75;;;;;10.32;64.77;101583.09;5014360;28;45680;-56
2022/10/09 03:53:09;;;;;;;;;10.50;8.00;;;;;10.27;64.81;101587.69;5033024;28;45312;-59
2022/10/09 03:55:34;;;;;;;;;8.25;8.25;;;;;10.18;65.27;101577.41;5016123;28;45765;-57
2022/10/09 03:58:00;;;;;;;;;11.00;11.00;;;;;10.24;65.35;101577.19;5014894;28;45459;-57
2022/10/09 04:00:25;;;;;;;;;7.50;7.50;;;;;10.26;64.65;101575.34;5015041;28;45528;-56
2022/10/09 04:02:51;;;;;;;;;11.25;10.75;;;;;10.26;65.05;101580.66;5016320;28;45993;-56
2022/10/09 04:05:17;;;;;;;;;8.00;8.00;;;;;10.24;65.17;101575.41;5033671;28;45433;-60
2022/10/09 04:07:42;;;;;;;;;10.50;8.00;;;;;10.22;65.31;101561.31;5035579;28;45441;-58
2022/10/09 04:10:09;;;;;;;;;12.25;8.00;;;;;10.25;65.05;101577.13;5033536;28;45547;-59
2022/10/09 04:12:34;;;;;;;;;12.00;10.00;;;;;10.25;64.64;101571.81;5035903;28;45399;-56
2022/10/09 04:15:00;;;;;;;;;8.00;7.00;;;;;10.24;64.99;101587.81;5032587;28;45380;-55
2022/10/09 04:17:25;;;;;;;;;8.50;7.00;;;;;10.23;64.78;101578.13;5026046;28;45470;-55
2022/10/09 04:19:51;;;;;;;;;9.50;9.50;;;;;10.15;64.83;101573.06;5030391;28;45576;-55
2022/10/09 04:22:16;;;;;;;;;11.25;7.25;;;;;10.08;65.17;101576.91;5035793;28;45368;-53
2022/10/09 04:24:41;;;;;;;;;10.75;8.50;;;;;10.04;66.03;101585.91;5033534;28;45259;-59
2022/10/09 04:27:07;;;;;;;;;7.50;7.50;;;;;10.01;65.72;101581.56;5035788;28;45293;-58
2022/10/09 04:29:33;;;;;;;;;10.25;9.50;;;;;9.98;65.80;101573.72;5025417;28;45444;-55
2022/10/09 04:31:58;;;;;;;;;8.00;8.00;;;;;9.95;65.18;101570.31;5009951;28;45469;-57
2022/10/09 04:34:23;;;;;;;;;14.75;11.50;;;;;10.01;64.84;101576.25;5022489;28;45336;-61
2022/10/09 04:36:49;;;;;;;;;11.75;8.00;;;;;10.04;64.53;101576.16;5035918;28;45675;-55
2022/10/09 04:39:15;;;;;;;;;14.25;7.00;;;;;10.05;64.68;101571.69;5026028;28;45624;-57
2022/10/09 04:41:40;;;;;;;;;11.50;9.00;;;;;10.02;64.81;101572.66;5031142;28;45436;-59
2022/10/09 04:44:06;;;;;;;;;10.00;8.00;;;;;10.07;65.09;101575.16;5015988;28;46831;-60
2022/10/09 04:46:31;;;;;;;;;10.00;7.25;;;;;10.02;65.70;101572.66;5019753;28;45313;-59
2022/10/09 04:48:57;;;;;;;;;6.00;6.00;;;;;9.92;65.67;101563.31;5019639;28;46012;-57
2022/10/09 04:51:22;;;;;;;;;8.00;7.00;;;;;9.90;65.24;101575.81;5015932;28;45442;-58
2022/10/09 04:53:47;;;;;;;;;8.00;6.25;;;;;9.90;65.18;101566.97;5026650;28;45510;-55
2022/10/09 04:56:18;;;;;;;;;7.75;7.75;;;;;9.90;64.67;101562.53;5029626;28;45502;-55
2022/10/09 04:58:45;;;;;;;;;7.00;7.00;;;;;9.93;64.99;101564.19;5020900;28;45331;-60
2022/10/09 05:01:13;;;;;;;;;7.75;6.00;;;;;9.92;65.16;101560.66;5024960;28;45491;-51
2022/10/09 05:03:39;;;;;;;;;9.50;6.25;;;;;9.91;65.37;101569.56;5020587;28;45425;-52
2022/10/09 05:06:07;;;;;;;;;8.00;6.75;;;;;9.89;65.64;101554.59;5032845;28;45782;-49
2022/10/09 05:08:32;;;;;;;;;6.00;6.00;;;;;9.82;65.22;101551.31;5033945;28;45510;-59
2022/10/09 05:11:06;;;;;;;;;9.25;8.00;;;;;9.87;65.25;101553.78;5034097;28;46087;-52
2022/10/09 05:13:35;;;;;;;;;5.25;5.25;;;;;9.80;65.37;101560.25;5035036;28;45296;-55
2022/10/09 05:16:02;;;;;;;;;9.25;6.00;;;;;9.73;65.46;101557.81;5024786;28;45730;-56
2022/10/09 05:18:28;;;;;;;;;11.50;7.00;;;;;9.75;65.99;101552.44;5017880;28;45373;-50
2022/10/09 05:20:54;;;;;;;;;7.25;7.25;;;;;9.70;65.64;101539.34;5017611;28;45528;-55
2022/10/09 05:23:19;;;;;;;;;6.50;5.00;;;;;9.71;65.20;101553.50;5018950;28;45449;-55
2022/10/09 05:25:56;;;;;;;;;6.50;6.00;;;;;9.65;65.93;101543.97;5038535;28;45381;-55
2022/10/09 05:28:22;;;;;;;;;7.75;6.00;;;;;9.63;65.76;101531.66;5035967;28;45406;-57
2022/10/09 05:30:49;;;;;;;;;8.50;6.25;;;;;9.68;64.97;101537.69;5037428;28;45474;-58
2022/10/09 05:33:15;;;;;;;;;8.75;8.00;;;;;9.68;65.52;101535.03;5035611;28;45289;-61
2022/10/09 05:35:40;;;;;;;;;10.25;10.00;;;;;9.73;65.37;101541.03;5029857;28;45308;-55
2022/10/09 05:38:05;;;;;;;;;6.00;5.75;;;;;9.75;65.87;101531.19;5036735;28;45364;-60
2022/10/09 05:40:31;;;;;;;;;6.00;5.25;;;;;9.72;64.74;101526.00;5024760;28;45565;-52
2022/10/09 05:42:56;;;;;;;;;6.00;5.00;;;;;9.77;65.37;101540.00;5018393;28;45378;-58
2022/10/09 05:45:22;;;;;;;;;4.50;4.50;;;;;9.78;64.58;101535.56;5023069;28;46135;-55
2022/10/09 05:47:47;;;;;;;;;6.75;5.75;;;;;9.78;64.72;101531.09;5032265;28;45566;-61
2022/10/09 05:50:12;;;;;;;;;9.75;6.00;;;;;9.79;64.97;101530.19;5053891;27;46695;-61
2022/10/09 05:52:38;;;;;;;;;7.25;6.00;;;;;9.81;64.62;101530.97;5019127;28;45518;-56
2022/10/09 05:55:05;;;;;;;;;5.25;5.25;;;;;9.81;65.39;101525.66;5025973;28;45342;-60
2022/10/09 05:57:31;;;;;;;;;9.00;6.00;;;;;9.78;64.29;101523.13;5018279;28;45453;-53
2022/10/09 05:59:56;;;;;;;;;6.75;6.00;;;;;9.68;65.60;101525.25;5018234;28;47181;-59
2022/10/09 06:02:22;;;;;;;;;7.00;6.00;;;;;9.63;65.81;101515.72;5018225;28;45353;-60
2022/10/09 06:04:47;;;;;;;;;7.00;6.25;;;;;9.70;65.55;101522.53;5018274;28;45368;-64
2022/10/09 06:07:12;;;;;;;;;8.25;6.50;;;;;9.72;65.34;101524.22;5016629;28;45533;-54
2022/10/09 06:09:38;;;;;;;;;6.25;6.25;;;;;9.72;64.45;101518.91;5034178;28;45598;-62
2022/10/09 06:12:03;;;;;;;;;9.50;7.50;;;;;9.72;65.60;101515.38;5017553;28;45324;-59
2022/10/09 06:14:29;;;;;;;;;5.00;5.00;;;;;9.69;65.67;101520.81;5018268;28;45355;-55
2022/10/09 06:16:54;;;;;;;;;4.75;2.50;;;;;9.73;65.12;101517.13;5018164;28;45610;-54
2022/10/09 06:19:20;;;;;;;;;9.75;7.00;;;;;9.75;65.28;101515.25;5017514;28;45345;-60
2022/10/09 06:21:46;;;;;;;;;7.00;7.00;;;;;9.80;64.93;101515.97;5020105;28;45687;-59
2022/10/09 06:24:23;;;;;;;;;6.75;6.00;;;;;9.79;65.07;101516.91;5023045;28;45410;-57
2022/10/09 06:26:49;;;;;;;;;5.00;5.00;;;;;9.80;64.80;101518.63;5028741;28;45302;-61
2022/10/09 06:29:14;;;;;;;;;6.50;6.50;;;;;9.85;64.53;101511.34;5012501;28;46165;-56
2022/10/09 06:31:39;;;;;;;;;11.25;7.00;;;;;9.86;63.70;101515.72;5037312;28;45481;-60
2022/10/09 06:34:05;;;;;;;;;6.75;5.75;;;;;9.84;64.23;101503.44;5028307;28;45403;-52
2022/10/09 06:36:35;;;;;;;;;5.50;5.50;;;;;9.86;64.18;101512.19;5028265;28;45613;-54
2022/10/09 06:39:04;;;;;;;;;10.25;8.25;;;;;9.85;63.79;101508.69;5031620;28;45584;-58
2022/10/09 06:41:30;;;;;;;;;10.25;6.50;;;;;9.84;63.92;101504.28;5033717;28;45549;-55
2022/10/09 06:43:58;;;;;;;;;5.25;5.00;;;;;9.83;64.16;101499.91;5014399;28;45493;-54
2022/10/09 06:46:27;;;;;;;;;6.25;6.00;;;;;9.85;64.37;101521.97;5014180;28;45497;-58
2022/10/09 06:48:53;;;;;;;;;8.50;6.00;;;;;9.82;64.14;101516.78;5017239;28;45396;-56
2022/10/09 06:51:21;;;;;;;;;7.50;6.00;;;;;9.80;64.85;101509.78;5027813;28;45552;-57
2022/10/09 06:53:58;;;;;;;;;7.75;5.75;;;;;9.90;64.53;101505.88;5027485;28;45602;-60
2022/10/09 06:56:26;;;;;;;;;8.00;6.50;;;;;9.89;64.23;101512.94;5026042;28;46054;-66
2022/10/09 06:58:51;;;;;;;;;6.75;6.75;;;;;9.97;64.07;101508.19;5025539;28;45562;-56
2022/10/09 07:01:26;;;;;;;;;8.50;6.25;;;;;9.97;64.66;101508.19;5021960;28;45962;-57
2022/10/09 07:03:54;;;;;;;;;16.00;9.50;;;;;9.97;63.74;101505.53;5033274;28;45378;-57
2022/10/09 07:06:25;;;;;;;;;11.75;10.25;;;;;10.01;64.02;101507.16;5023357;28;46709;-55
2022/10/09 07:08:54;;;;;;;;;7.00;7.00;;;;;10.08;63.38;101501.59;5015180;28;45545;-63
2022/10/09 07:11:50;;;;;;;;;9.00;9.00;;;;;10.12;63.76;101505.88;5019835;28;45323;-59
2022/10/09 07:14:20;;;;;;;;;9.25;9.00;;;;;10.16;63.73;101504.84;5018450;28;45434;-62
2022/10/09 07:16:47;;;;;;;;;10.25;7.00;;;;;10.22;63.56;101504.63;5026957;28;45297;-60
2022/10/09 07:19:16;;;;;;;;;7.00;7.00;;;;;10.21;63.16;101494.88;5035299;28;45486;-57
2022/10/09 07:21:43;;;;;;;;;7.00;7.00;;;;;10.22;63.29;101496.63;5018874;28;45254;-57
2022/10/09 07:24:10;;;;;;;;;8.50;8.50;;;;;10.24;63.65;101495.66;5017718;28;45231;-58
2022/10/09 07:26:38;;;;;;;;;11.75;9.50;;;;;10.28;63.02;101491.94;5032091;28;45271;-57
2022/10/09 07:29:07;;;;;;;;;15.00;12.25;;;;;10.30;62.77;101490.09;5016867;28;45497;-61
2022/10/09 07:31:32;;;;;;;;;8.75;8.75;;;;;10.38;62.45;101497.75;5016002;28;45301;-61
2022/10/09 07:33:58;;;;;;;;;9.00;9.00;;;;;10.40;63.28;101487.91;5016736;28;45317;-58
2022/10/09 07:36:27;;;;;;;;;10.50;7.75;;;;;10.43;62.80;101481.63;5016394;28;45367;-60
2022/10/09 07:38:57;;;;;;;;;11.00;11.00;;;;;10.45;62.78;101483.28;5031036;28;46103;-58
2022/10/09 07:41:25;;;;;;;;;7.75;3.00;;;;;10.51;63.26;101496.31;5030845;28;45272;-58
2022/10/09 07:43:54;;;;;;;;;10.75;9.00;;;;;10.52;62.73;101487.41;5016085;28;45375;-57
2022/10/09 07:46:22;;;;;;;;;8.75;7.00;;;;;10.58;62.88;101484.50;5031862;28;45300;-53
2022/10/09 07:48:48;;;;;;;;;13.00;12.75;;;;;10.62;62.97;101480.78;4995887;28;45414;-53
2022/10/09 07:51:19;;;;;;;;;11.25;11.00;;;;;10.69;61.95;101477.88;4996670;28;45182;-54
2022/10/09 07:53:46;;;;;;;;;14.00;11.50;;;;;10.73;62.18;101474.13;5019624;28;45775;-61
2022/10/09 07:56:19;;;;;;;;;11.50;11.25;;;;;10.81;62.33;101477.34;5015914;28;45367;-59
2022/10/09 07:58:52;;;;;;;;;13.00;11.75;;;;;10.87;61.85;101477.06;5016554;28;45486;-60
2022/10/09 08:01:18;;;;;;;;;11.00;7.50;;;;;10.85;61.62;101474.47;5016948;28;45559;-56
2022/10/09 08:03:44;;;;;;;;;13.25;10.75;;;;;10.90;61.74;101468.94;5015568;28;45529;-61
2022/10/09 08:06:12;;;;;;;;;11.25;11.25;;;;;10.95;62.08;101472.28;5016564;28;45689;-57
2022/10/09 08:08:38;;;;;;;;;10.00;10.00;;;;;11.01;61.74;101457.84;5017745;28;45580;-55
2022/10/09 08:11:12;;;;;;;;;13.50;12.25;;;;;11.05;61.76;101451.44;5030126;28;45529;-61
2022/10/09 08:13:41;;;;;;;;;12.00;12.00;;;;;11.14;61.91;101459.88;5016729;28;45546;-62
2022/10/09 08:16:07;;;;;;;;;16.00;13.25;;;;;11.22;61.13;101463.09;5012810;28;45629;-60
2022/10/09 08:18:34;;;;;;;;;16.75;12.00;;;;;11.28;61.28;101451.28;5014397;28;45489;-59
2022/10/09 08:21:03;;;;;;;;;16.50;12.50;;;;;11.36;61.10;101458.94;5015001;28;45263;-58
2022/10/09 08:23:29;;;;;;;;;16.50;12.00;;;;;11.39;60.58;101457.00;5015050;28;45570;-57
2022/10/09 08:25:55;;;;;;;;;12.00;11.75;;;;;11.46;61.04;101452.25;5014319;28;45280;-62
2022/10/09 08:28:27;;;;;;;;;13.75;8.75;;;;;11.52;60.46;101450.16;5015953;28;45482;-60
2022/10/09 08:30:52;;;;;;;;;14.00;12.75;;;;;11.56;60.52;101439.34;5012888;28;45387;-61
2022/10/09 08:33:22;;;;;;;;;15.75;14.00;;;;;11.63;60.62;101435.47;5013893;28;45516;-57
2022/10/09 08:36:03;;;;;;;;;13.25;13.00;;;;;11.69;60.63;101436.03;4996775;28;45370;-57
2022/10/09 08:38:30;;;;;;;;;15.75;15.25;;;;;11.79;60.30;101432.03;5014260;28;46995;-57
2022/10/09 08:41:07;;;;;;;;;14.50;11.75;;;;;11.93;60.14;101439.38;5015588;28;45365;-59
2022/10/09 08:43:46;;;;;;;;;18.50;15.25;;;;;12.04;59.87;101436.19;5026396;28;45398;-60
2022/10/09 08:46:21;;;;;;;;;14.25;14.25;;;;;12.09;59.55;101428.81;5016332;28;45382;-60
2022/10/09 08:48:52;;;;;;;;;12.00;9.00;;;;;12.17;59.34;101440.00;5014522;28;45367;-59
2022/10/09 08:51:24;;;;;;;;;17.50;16.00;;;;;12.26;59.51;101431.53;5007284;28;45507;-61
2022/10/09 08:53:57;;;;;;;;;13.75;13.75;;;;;12.30;59.66;101419.78;5018067;28;45374;-59
2022/10/09 08:56:25;;;;;;;;;14.50;13.50;;;;;12.49;59.43;101433.03;5014883;28;45592;-61
2022/10/09 08:58:51;;;;;;;;;20.00;12.75;;;;;12.56;58.72;101418.47;5018535;28;46222;-64
2022/10/09 09:01:32;;;;;;;;;13.25;13.00;;;;;12.74;58.68;101416.63;5018846;28;45293;-61
2022/10/09 09:04:26;;;;;;;;;19.75;16.25;;;;;12.85;58.44;101416.94;5017736;28;45489;-58
2022/10/09 09:07:27;;;;;;;;;14.00;13.00;;;;;13.01;58.08;101406.31;5015137;28;45438;-60
2022/10/09 09:10:09;;;;;;;;;15.00;13.75;;;;;13.15;57.48;101401.13;5014657;28;46169;-58
2022/10/09 09:12:41;;;;;;;;;17.00;15.00;;;;;13.24;57.67;101389.09;5006092;28;45265;-57
2022/10/09 09:15:43;;;;;;;;;16.33;16.00;;;;;13.36;57.08;101383.06;5024302;28;45407;-54
2022/10/09 09:18:49;;;;;;;;;18.25;14.25;;;;;13.50;57.39;101393.88;5020912;28;45326;-57
2022/10/09 09:21:32;;;;;;;;;14.50;13.50;;;;;13.62;56.92;101391.47;5015638;28;45557;-55
2022/10/09 09:24:02;;;;;;;;;21.00;12.00;;;;;13.71;57.37;101380.25;5012604;28;45532;-58
2022/10/09 09:26:27;;;;;;;;;16.75;14.25;;;;;13.82;56.82;101378.72;5021725;28;45239;-59
2022/10/09 09:28:59;;;;;;;;;14.33;12.67;;;;;13.94;56.98;101377.13;5038514;28;45397;-56
2022/10/09 09:31:30;;;;;;;;;12.33;9.00;;;;;14.02;56.31;101376.69;5038592;28;45457;-61
2022/10/09 09:34:02;;;;;;;;;9.33;8.33;;;;;14.07;56.25;101362.09;5015440;28;45458;-59
2022/10/09 09:36:40;;;;;;;;;9.00;7.67;;;;;14.23;55.49;101363.88;5006833;28;45474;-60
2022/10/09 09:39:08;;;;;;;;;10.33;10.33;;;;;14.32;55.88;101366.88;5018846;28;45410;-58
2022/10/09 09:41:34;;;;;;;;;5.00;3.00;;;;;14.41;55.54;101347.56;5011805;28;48297;-60
2022/10/09 09:43:59;;;;;;;;;8.33;8.00;;;;;14.53;55.47;101355.84;5014909;28;45400;-60
2022/10/09 09:46:28;;;;;;;;;9.00;6.00;;;;;14.58;55.04;101354.63;5012608;28;45419;-58
2022/10/09 09:48:54;;;;;;;;;6.33;6.33;;;;;14.67;54.61;101342.50;5017949;28;45220;-61
2022/10/09 09:51:30;;;;;;;;;6.67;6.67;;;;;14.76;54.89;101341.94;5014955;28;46416;-61
2022/10/09 09:54:19;;;;;;;;;11.00;9.33;;;;;14.83;54.59;101331.69;5025661;28;45403;-57
2022/10/09 09:56:46;;;;;;;;;10.00;6.67;;;;;14.90;54.54;101333.06;5016466;28;45486;-60
2022/10/09 09:59:38;;;;;;;;;7.67;7.67;;;;;14.97;54.62;101331.69;5008956;28;45858;-57
2022/10/09 10:02:17;;;;;;;;;8.33;8.33;;;;;15.08;54.26;101328.34;5015582;28;45421;-60
2022/10/09 10:04:56;;;;;;;;;7.33;6.67;;;;;15.15;54.22;101324.34;5019009;28;46650;-56
2022/10/09 10:07:32;;;;;;;;;6.33;6.33;;;;;15.27;53.27;101329.78;5015176;28;45462;-60
2022/10/09 10:10:21;;;;;;;;;8.33;5.67;;;;;15.35;53.77;101315.88;5015133;28;46524;-60
2022/10/09 10:12:56;;;;;;;;;8.67;5.33;;;;;15.44;53.27;101314.41;5013452;28;45722;-59
2022/10/09 10:15:32;;;;;;;;;10.00;8.33;;;;;15.53;53.61;101311.16;5009603;28;45383;-59
2022/10/09 10:18:02;;;;;;;;;8.67;8.67;;;;;15.63;53.14;101301.59;5029650;28;45423;-58
2022/10/09 10:20:30;;;;;;;;;6.00;6.00;;;;;15.76;53.31;101299.81;5008532;28;45392;-60
2022/10/09 10:22:58;;;;;;;;;4.00;4.00;;;;;15.84;52.79;101297.47;5015225;28;46623;-58
2022/10/09 10:25:31;;;;;;;;;5.00;5.00;;;;;15.87;51.88;101289.19;5017256;28;45617;-54
2022/10/09 10:28:02;;;;;;;;;5.33;5.33;;;;;16.02;52.58;101286.47;5016784;28;45418;-62
2022/10/09 10:30:29;;;;;;;;;7.00;5.00;;;;;16.14;51.83;101281.09;5016239;28;45462;-57
2022/10/09 10:33:01;;;;;;;;;6.00;6.00;;;;;16.26;52.10;101278.53;5008191;28;46446;-62
2022/10/09 10:35:31;;;;;;;;;10.00;6.33;;;;;16.39;51.73;101264.16;5009584;28;45847;-58
2022/10/09 10:38:20;;;;;;;;;8.33;6.67;;;;;16.50;51.24;101271.47;5015642;28;45406;-58
2022/10/09 10:40:55;;;;;;;;;4.00;4.00;;;;;16.64;51.46;101270.50;5015029;28;45409;-57
2022/10/09 10:43:55;;;;;;;;;7.00;5.33;;;;;16.80;50.63;101266.69;5015866;28;46422;-58
2022/10/09 10:46:30;;;;;;;;;6.67;5.33;;;;;16.97;49.95;101264.59;5014820;28;45466;-57
2022/10/09 10:48:58;;;;;;;;;4.00;2.67;;;;;17.07;49.69;101260.28;5011938;28;45748;-59
2022/10/09 10:51:46;;;;;;;;;5.33;5.33;;;;;17.19;49.68;101250.44;5032367;28;45731;-58
2022/10/09 10:54:36;;;;;;;;;7.00;5.00;;;;;17.36;48.77;101245.56;5031704;28;45789;-60
2022/10/09 10:57:15;;;;;;;;;3.67;3.67;;;;;17.52;48.72;101239.03;5016132;28;45558;-64
2022/10/09 10:59:50;;;;;;;;;5.00;5.00;;;;;17.61;48.23;101231.13;5017294;28;45736;-58
2022/10/09 11:02:33;;;;;;;;;7.00;5.67;;;;;17.75;48.20;101226.59;5014706;28;45482;-60
2022/10/09 11:05:40;;;;;;;;;4.00;4.00;;;;;17.88;47.73;101219.28;5015337;28;45242;-58
2022/10/09 11:08:19;;;;;;;;;4.67;4.67;;;;;18.03;47.58;101215.41;5000042;28;45344;-59
2022/10/09 11:11:03;;;;;;;;;4.00;4.00;;;;;18.14;47.50;101220.81;5016008;28;45442;-60
2022/10/09 11:13:33;;;;;;;;;4.33;3.00;;;;;18.30;47.19;101209.72;5013385;28;46949;-59
2022/10/09 11:16:41;;;;;;;;;4.67;4.67;;;;;18.43;46.79;101209.59;5013210;28;48299;-57
2022/10/09 11:19:44;;;;;;;;;5.33;3.00;;;;;18.49;46.11;101206.41;5014245;28;45770;-58
2022/10/09 11:22:10;;;;;;;;;4.33;4.33;;;;;18.64;46.41;101199.00;5015554;28;45321;-58
2022/10/09 11:24:53;;;;;;;;;4.00;4.00;;;;;18.79;46.85;101195.06;5001767;28;45350;-57
2022/10/09 11:27:25;;;;;;;;;3.00;3.00;;;;;18.88;46.07;101194.31;5011749;28;46287;-58
2022/10/09 11:29:54;;;;;;;;;4.00;3.00;;;;;18.90;45.73;101178.03;5015293;28;45406;-59
2022/10/09 11:32:27;;;;;;;;;5.00;5.00;;;;;19.05;45.88;101187.53;5014777;28;45352;-57
2022/10/09 11:35:05;;;;;;;;;5.67;4.00;;;;;19.21;45.75;101179.03;5017398;28;45307;-58